サンクトペテルブルク の空港の天気 - METARとTAF

プルコヴォ空港(サンクトペテルブルグ) ( ULLI / LED ) - ロシア サンクトペテルブルク
飛行場実況気象(Metar)
観測時間04/26 14:00 MSK (04/26 11:00 UTC)
風向・風速西北西 4m/s
視程10km以上
天気現象
全天を覆う雲 雲底高度 490m
気温7℃
湿度81%
気圧998hPa
METARULLI 261100Z 30004MPS 9999 OVC016 07/04 Q0998 R88/190055 NOSIG
過去の天気等 Google飛行場航空写真 Wunderground天気予報

過去48時間のMETAR

飛行場予報(TAF)
発表時間: 4/26 11:01 MSK (4/26 08:01 UTC)
予報対象時間: 26日12時 MSK ~ 27日12時 MSK
風向・風速西 5m/s
視程10km以上
全天の4割程度の雲 雲底高度 340m
全天の8割程度の雲 雲底高度 610m
26日12時 MSK ~ 26日18時 MSK に一時的に
風向・風速西北西 5m/s 瞬間風速 12m/s
視程4,000m
天気現象弱いしゅう雨
全天の8割程度の雲 雲底高度 340m
全天の8割程度の積乱雲 雲底高度 550m
26日21時 MSK ~ 27日9時 MSK に一時的に
視程3,100m
天気現象もや
全天の8割程度の雲 雲底高度 340m
TAF ULLI 260801Z 2609/2709 27005MPS 9999 SCT011 BKN020
TEMPO 2609/2615 30005G12MPS 4000 -SHRA BKN011 BKN018CB
TEMPO 2618/2706 3100 BR BKN011